createdAt,value
2022-08-14T00:02:27.290Z,8.93
2022-08-14T00:04:55.803Z,8.82
2022-08-14T00:07:23.586Z,7.97
2022-08-14T00:10:02.578Z,8.60
2022-08-14T00:12:42.163Z,9.15
2022-08-14T00:15:43.435Z,8.18
2022-08-14T00:19:05.341Z,8.43
2022-08-14T00:21:05.107Z,8.30
2022-08-14T00:23:39.798Z,8.18
2022-08-14T00:26:08.322Z,9.00
2022-08-14T00:28:50.235Z,8.70
2022-08-14T00:31:19.938Z,8.85
2022-08-14T00:34:36.577Z,9.63
2022-08-14T00:36:51.346Z,8.70
2022-08-14T00:39:18.952Z,9.13
2022-08-14T00:41:48.583Z,9.48
2022-08-14T00:44:21.542Z,8.57
2022-08-14T00:47:02.828Z,8.37
2022-08-14T00:49:38.155Z,8.25
2022-08-14T00:52:18.421Z,8.57
2022-08-14T00:54:57.956Z,8.68
2022-08-14T00:57:32.058Z,9.52
2022-08-14T01:00:00.735Z,9.60
2022-08-14T01:02:31.952Z,10.32
2022-08-14T01:05:01.551Z,8.70
2022-08-14T01:07:47.400Z,9.63
2022-08-14T01:10:18.825Z,9.48
2022-08-14T01:12:48.850Z,9.20
2022-08-14T01:15:21.490Z,9.52
2022-08-14T01:18:27.925Z,9.88
2022-08-14T01:21:13.394Z,8.27
2022-08-14T01:23:46.940Z,9.38
2022-08-14T01:26:34.443Z,10.13
2022-08-14T01:29:06.548Z,11.35
2022-08-14T01:31:41.930Z,10.27
2022-08-14T01:35:18.446Z,9.95
2022-08-14T01:36:59.934Z,9.98
2022-08-14T01:39:32.282Z,9.60
2022-08-14T01:42:01.811Z,8.90
2022-08-14T01:44:34.021Z,9.13
2022-08-14T01:47:21.965Z,9.73
2022-08-14T01:50:01.446Z,9.45
2022-08-14T01:52:59.739Z,9.98
2022-08-14T01:55:32.321Z,9.32
2022-08-14T01:58:20.092Z,9.35
2022-08-14T02:00:55.545Z,10.50
2022-08-14T02:03:29.543Z,10.63
2022-08-14T02:06:04.098Z,11.07
2022-08-14T02:08:53.292Z,18.48
2022-08-14T02:11:24.351Z,11.20
2022-08-14T02:14:08.406Z,12.90
2022-08-14T02:16:41.920Z,12.00
2022-08-14T02:19:14.897Z,33.58
2022-08-14T02:21:49.031Z,13.25
2022-08-14T02:24:39.859Z,24.25
2022-08-14T02:28:23.110Z,12.05
2022-08-14T02:30:02.064Z,10.90
2022-08-14T02:32:36.165Z,10.65
2022-08-14T02:35:21.833Z,9.90
2022-08-14T02:37:50.875Z,9.32
2022-08-14T02:40:20.613Z,10.43
2022-08-14T02:43:02.379Z,19.27
2022-08-14T02:45:37.961Z,15.35
2022-08-14T02:49:01.097Z,11.85
2022-08-14T02:51:01.029Z,10.55
2022-08-14T02:53:31.103Z,10.57
2022-08-14T02:56:02.742Z,9.60
2022-08-14T02:58:34.465Z,10.27
2022-08-14T03:01:09.190Z,10.38
2022-08-14T03:03:38.760Z,9.15
2022-08-14T03:06:10.460Z,10.43
2022-08-14T03:08:39.558Z,11.23
2022-08-14T03:11:15.359Z,9.85
2022-08-14T03:13:49.473Z,11.18
2022-08-14T03:16:26.827Z,14.10
2022-08-14T03:19:00.769Z,22.67
2022-08-14T03:21:33.394Z,20.33
2022-08-14T03:24:16.674Z,15.77
2022-08-14T03:26:57.281Z,11.45
2022-08-14T03:29:29.617Z,11.15
2022-08-14T03:31:59.431Z,10.63
2022-08-14T03:34:48.056Z,11.05
2022-08-14T03:37:39.353Z,10.50
2022-08-14T03:40:03.183Z,10.40
2022-08-14T03:42:35.745Z,10.65
2022-08-14T03:45:25.665Z,12.00
2022-08-14T03:47:58.864Z,10.57
2022-08-14T03:50:31.499Z,10.80
2022-08-14T03:53:02.176Z,10.88
2022-08-14T03:55:30.863Z,10.32
2022-08-14T03:58:00.690Z,10.40
2022-08-14T04:00:43.108Z,11.57
2022-08-14T04:03:23.636Z,11.55
2022-08-14T04:05:52.101Z,11.65
2022-08-14T04:08:29.217Z,10.75
2022-08-14T04:11:01.107Z,11.05
2022-08-14T04:13:34.285Z,11.40
2022-08-14T04:16:06.874Z,10.82
2022-08-14T04:18:46.579Z,10.48
2022-08-14T04:21:16.398Z,10.70
2022-08-14T04:23:49.202Z,10.57
2022-08-14T04:26:42.945Z,10.05
2022-08-14T04:29:16.308Z,10.98
2022-08-14T04:32:58.864Z,10.57
2022-08-14T04:34:36.482Z,10.80
2022-08-14T04:37:25.416Z,10.77
2022-08-14T04:40:15.108Z,10.10
2022-08-14T04:43:01.841Z,10.80
2022-08-14T04:45:41.996Z,10.73
2022-08-14T04:48:39.928Z,10.45
2022-08-14T04:51:08.655Z,10.25
2022-08-14T04:53:41.120Z,10.50
2022-08-14T04:56:31.354Z,10.00
2022-08-14T04:59:09.489Z,9.85
2022-08-14T05:01:48.983Z,10.38
2022-08-14T05:04:20.878Z,10.40
2022-08-14T05:06:55.169Z,9.82
2022-08-14T05:09:28.911Z,10.25
2022-08-14T05:14:55.076Z,10.50
2022-08-14T05:17:28.680Z,9.70
2022-08-14T05:21:55.655Z,10.68
2022-08-14T05:22:56.055Z,10.77
2022-08-14T05:25:23.911Z,10.48
2022-08-14T05:27:52.909Z,11.05
2022-08-14T05:30:25.776Z,10.43
2022-08-14T05:32:55.839Z,12.15
2022-08-14T05:35:23.182Z,11.88
2022-08-14T05:37:51.175Z,10.75
2022-08-14T05:40:18.634Z,10.93
2022-08-14T05:42:46.502Z,10.93
2022-08-14T05:45:20.941Z,11.93
2022-08-14T05:47:50.947Z,9.80
2022-08-14T05:50:19.897Z,10.93
2022-08-14T05:52:51.100Z,9.63
2022-08-14T05:55:22.029Z,10.38
2022-08-14T05:57:57.837Z,10.85
2022-08-14T06:00:38.750Z,9.95
2022-08-14T06:03:14.942Z,9.88
2022-08-14T06:05:47.573Z,10.25
2022-08-14T06:08:35.830Z,9.10
2022-08-14T06:11:09.338Z,10.82
2022-08-14T06:13:44.690Z,9.90
2022-08-14T06:16:17.810Z,9.90
2022-08-14T06:18:52.332Z,10.70
2022-08-14T06:21:23.118Z,9.80
2022-08-14T06:23:51.648Z,9.32
2022-08-14T06:26:22.122Z,10.07
2022-08-14T06:28:52.781Z,9.40
2022-08-14T06:31:22.599Z,9.45
2022-08-14T06:35:02.676Z,9.93
2022-08-14T06:36:39.789Z,16.45
2022-08-14T06:39:10.051Z,12.00
2022-08-14T06:41:59.322Z,9.52
2022-08-14T06:44:30.668Z,9.27
2022-08-14T06:47:02.879Z,10.02
2022-08-14T06:49:42.698Z,9.77
2022-08-14T06:52:16.245Z,10.43
2022-08-14T06:54:46.322Z,10.63
2022-08-14T06:57:13.777Z,10.35
2022-08-14T06:59:42.247Z,10.25
2022-08-14T07:02:29.358Z,8.52
2022-08-14T07:05:22.974Z,12.45
2022-08-14T07:07:51.292Z,13.38
2022-08-14T07:10:19.100Z,10.05
2022-08-14T07:13:01.941Z,9.85
2022-08-14T07:15:39.574Z,8.73
2022-08-14T07:18:10.517Z,9.95
2022-08-14T07:20:39.968Z,10.10
2022-08-14T07:23:19.823Z,9.48
2022-08-14T07:25:51.685Z,9.65
2022-08-14T07:28:25.757Z,10.45
2022-08-14T07:31:04.698Z,10.83
2022-08-14T07:33:37.153Z,11.73
2022-08-14T07:36:27.501Z,10.38
2022-08-14T07:39:00.799Z,9.95
2022-08-14T07:41:33.890Z,10.27
2022-08-14T07:44:28.747Z,10.98
2022-08-14T07:46:52.173Z,16.00
2022-08-14T07:49:21.473Z,8.95
2022-08-14T07:51:52.458Z,9.65
2022-08-14T07:54:23.171Z,9.82
2022-08-14T07:57:12.035Z,9.65
2022-08-14T07:59:46.972Z,10.50
2022-08-14T08:02:20.618Z,9.20
2022-08-14T08:04:55.359Z,15.05
2022-08-14T08:07:31.338Z,10.05
2022-08-14T08:10:46.320Z,11.20
2022-08-14T08:13:16.105Z,12.85
2022-08-14T08:15:46.877Z,10.73
2022-08-14T08:18:27.305Z,9.60
2022-08-14T08:20:59.231Z,12.75
2022-08-14T08:23:40.652Z,10.63
2022-08-14T08:26:19.155Z,9.90
2022-08-14T08:28:59.449Z,9.82
2022-08-14T08:31:32.894Z,9.45
2022-08-14T08:34:06.543Z,10.15
2022-08-14T08:36:42.033Z,9.45
2022-08-14T08:39:22.176Z,18.70
2022-08-14T08:41:53.752Z,15.40
2022-08-14T08:44:32.891Z,10.80
2022-08-14T08:47:06.504Z,10.85
2022-08-14T08:49:52.951Z,10.50
2022-08-14T08:52:31.429Z,10.98
2022-08-14T08:55:04.934Z,11.27
2022-08-14T08:57:37.986Z,11.13
2022-08-14T09:00:25.394Z,11.13
2022-08-14T09:03:03.309Z,10.65
2022-08-14T09:05:35.294Z,10.35
2022-08-14T09:08:26.525Z,11.60
2022-08-14T09:11:19.857Z,10.50
2022-08-14T09:13:53.686Z,11.30
2022-08-14T09:16:25.849Z,11.75
2022-08-14T09:18:55.030Z,10.35
2022-08-14T09:21:24.099Z,11.85
2022-08-14T09:24:28.617Z,10.95
2022-08-14T09:26:49.507Z,10.90
2022-08-14T09:29:22.832Z,11.40
2022-08-14T09:31:58.051Z,11.00
2022-08-14T09:37:26.584Z,9.85
2022-08-14T09:40:16.673Z,10.68
2022-08-14T09:43:10.427Z,9.10
2022-08-14T09:45:52.957Z,11.23
2022-08-14T09:48:27.554Z,10.10
2022-08-14T09:54:18.741Z,10.15
2022-08-14T09:56:46.316Z,10.90
2022-08-14T09:59:33.715Z,10.70
2022-08-14T10:02:07.937Z,9.27
2022-08-14T10:04:41.234Z,10.50
2022-08-14T10:07:14.285Z,10.48
2022-08-14T10:09:59.515Z,9.52
2022-08-14T10:12:45.164Z,10.00
2022-08-14T10:15:25.378Z,9.90
2022-08-14T10:18:17.636Z,9.27
2022-08-14T10:21:10.813Z,10.32
2022-08-14T10:23:52.384Z,18.70
2022-08-14T10:26:23.108Z,11.05
2022-08-14T10:29:33.637Z,9.05
2022-08-14T10:32:03.219Z,9.98
2022-08-14T10:34:46.811Z,10.47
2022-08-14T10:37:23.653Z,10.25
2022-08-14T10:40:10.674Z,10.07
2022-08-14T10:42:50.231Z,10.27
2022-08-14T10:45:24.384Z,10.38
2022-08-14T10:48:09.429Z,10.35
2022-08-14T10:50:49.809Z,10.80
2022-08-14T10:53:29.141Z,9.82
2022-08-14T10:56:04.593Z,10.65
2022-08-14T10:58:34.490Z,12.43
2022-08-14T11:01:06.257Z,11.68
2022-08-14T11:03:55.996Z,11.75
2022-08-14T11:06:27.214Z,11.68
2022-08-14T11:08:56.368Z,11.43
2022-08-14T11:11:37.092Z,11.48
2022-08-14T11:14:09.284Z,10.50
2022-08-14T11:16:40.768Z,10.68
2022-08-14T11:19:11.137Z,11.40
2022-08-14T11:21:45.816Z,11.38
2022-08-14T11:24:55.159Z,11.10
2022-08-14T11:27:06.218Z,13.73
2022-08-14T11:29:36.331Z,11.23
2022-08-14T11:32:07.131Z,11.55
2022-08-14T11:34:38.376Z,11.90
2022-08-14T11:37:18.158Z,11.70
2022-08-14T11:39:51.478Z,10.98
2022-08-14T11:42:58.038Z,11.68
2022-08-14T11:45:18.721Z,10.68
2022-08-14T11:48:13.176Z,9.82
2022-08-14T11:50:37.947Z,10.32
2022-08-14T11:53:23.008Z,9.35
2022-08-14T11:56:03.793Z,11.13
2022-08-14T11:58:37.635Z,9.48
2022-08-14T12:01:09.722Z,9.82
2022-08-14T12:03:57.037Z,10.80
2022-08-14T12:06:39.238Z,13.80
2022-08-14T12:09:14.796Z,11.30
2022-08-14T12:11:47.440Z,8.75
2022-08-14T12:14:34.600Z,9.52
2022-08-14T12:17:12.055Z,8.35
2022-08-14T12:19:51.113Z,9.32
2022-08-14T12:22:42.282Z,7.68
2022-08-14T12:25:20.366Z,8.55
2022-08-14T12:27:53.273Z,7.90
2022-08-14T12:30:44.223Z,8.95
2022-08-14T12:33:33.976Z,8.85
2022-08-14T12:36:06.038Z,8.90
2022-08-14T12:38:48.679Z,9.23
2022-08-14T12:41:28.018Z,10.13
2022-08-14T12:44:02.875Z,10.07
2022-08-14T12:46:43.698Z,9.55
2022-08-14T12:49:17.741Z,11.93
2022-08-14T12:52:12.319Z,9.43
2022-08-14T12:54:56.089Z,8.95
2022-08-14T12:57:37.487Z,10.30
2022-08-14T13:00:23.017Z,10.25
2022-08-14T13:02:55.238Z,10.40
2022-08-14T13:05:27.426Z,9.80
2022-08-14T13:07:59.058Z,9.43
2022-08-14T13:10:47.218Z,9.73
2022-08-14T13:13:19.007Z,10.45
2022-08-14T13:15:57.462Z,10.10
2022-08-14T13:18:30.106Z,9.80
2022-08-14T13:21:04.324Z,10.47
2022-08-14T13:23:36.216Z,9.45
2022-08-14T13:26:05.191Z,10.10
2022-08-14T13:29:00.474Z,10.50
2022-08-14T13:31:29.933Z,10.38
2022-08-14T13:34:00.729Z,10.30
2022-08-14T13:36:54.656Z,10.25
2022-08-14T13:39:21.216Z,9.70
2022-08-14T13:41:55.643Z,8.80
2022-08-14T13:44:27.528Z,9.27
2022-08-14T13:46:55.734Z,9.27
2022-08-14T13:49:24.604Z,9.10
2022-08-14T13:51:59.335Z,9.05
2022-08-14T13:54:32.849Z,9.63
2022-08-14T13:57:03.794Z,9.60
2022-08-14T13:59:38.016Z,9.95
2022-08-14T14:04:43.267Z,8.98
2022-08-14T14:07:23.340Z,9.65
2022-08-14T14:09:56.431Z,9.40
2022-08-14T14:12:37.898Z,9.98
2022-08-14T14:15:12.482Z,9.80
2022-08-14T14:17:44.361Z,9.43
2022-08-14T14:20:34.373Z,8.52
2022-08-14T14:23:09.734Z,9.95
2022-08-14T14:25:51.481Z,9.48
2022-08-14T14:28:31.832Z,9.60
2022-08-14T14:31:06.878Z,8.85
2022-08-14T14:33:51.613Z,8.82
2022-08-14T14:36:23.602Z,10.20
2022-08-14T14:39:08.005Z,8.77
2022-08-14T14:41:44.104Z,9.27
2022-08-14T14:44:15.802Z,8.57
2022-08-14T14:46:51.029Z,8.70
2022-08-14T14:49:31.775Z,9.82
2022-08-14T14:52:23.283Z,9.15
2022-08-14T14:54:59.380Z,9.32
2022-08-14T14:57:35.049Z,9.63
2022-08-14T15:00:19.503Z,8.68
2022-08-14T15:02:53.343Z,9.77
2022-08-14T15:05:28.442Z,14.63
2022-08-14T15:07:56.450Z,9.65
2022-08-14T15:10:26.998Z,8.75
2022-08-14T15:13:04.029Z,9.27
2022-08-14T15:15:36.827Z,9.75
2022-08-14T15:18:36.253Z,9.35
2022-08-14T15:21:01.397Z,10.18
2022-08-14T15:23:43.891Z,9.35
2022-08-14T15:26:23.398Z,9.57
2022-08-14T15:29:02.723Z,15.48
2022-08-14T15:31:36.438Z,9.85
2022-08-14T15:34:46.111Z,11.93
2022-08-14T15:44:58.283Z,9.38
2022-08-14T15:47:33.022Z,9.18
2022-08-14T15:50:05.927Z,9.15
2022-08-14T15:52:37.213Z,16.42
2022-08-14T15:55:13.008Z,14.00
2022-08-14T15:58:02.472Z,9.35
2022-08-14T16:00:55.152Z,9.85
2022-08-14T16:03:27.612Z,8.88
2022-08-14T16:06:11.051Z,9.95
2022-08-14T16:08:46.482Z,9.48
2022-08-14T16:11:19.367Z,8.88
2022-08-14T16:13:49.184Z,9.55
2022-08-14T16:16:51.024Z,9.82
2022-08-14T16:19:19.455Z,10.25
2022-08-14T16:22:02.060Z,10.18
2022-08-14T16:25:00.059Z,9.38
2022-08-14T16:27:41.205Z,9.10
2022-08-14T16:30:20.750Z,9.93
2022-08-14T16:32:59.362Z,10.15
2022-08-14T16:35:42.574Z,9.98
2022-08-14T16:38:45.688Z,8.47
2022-08-14T16:41:23.183Z,8.85
2022-08-14T16:43:58.904Z,9.10
2022-08-14T16:46:31.587Z,9.18
2022-08-14T16:49:02.700Z,8.43
2022-08-14T16:51:34.974Z,8.77
2022-08-14T16:54:20.694Z,15.98
2022-08-14T16:57:22.634Z,11.88
2022-08-14T16:59:57.077Z,9.10
2022-08-14T17:02:45.025Z,7.90
2022-08-14T17:05:29.026Z,7.93
2022-08-14T17:08:07.279Z,8.57
2022-08-14T17:10:51.631Z,7.88
2022-08-14T17:13:21.113Z,20.25
2022-08-14T17:16:24.948Z,6.82
2022-08-14T17:19:00.655Z,7.85
2022-08-14T17:21:41.562Z,7.53
2022-08-14T17:24:55.881Z,6.63
2022-08-14T17:27:03.989Z,8.13
2022-08-14T17:29:57.573Z,7.97
2022-08-14T17:32:44.478Z,6.65
2022-08-14T17:35:57.578Z,6.43
2022-08-14T17:41:23.531Z,7.05
2022-08-14T17:46:43.682Z,6.38
2022-08-14T17:49:17.990Z,6.95
2022-08-14T17:52:17.082Z,7.20
2022-08-14T17:54:53.000Z,6.45
2022-08-14T17:57:30.507Z,5.97
2022-08-14T18:00:05.284Z,7.13
2022-08-14T18:02:34.090Z,6.72
2022-08-14T18:05:03.076Z,6.10
2022-08-14T18:07:59.320Z,5.80
2022-08-14T18:10:51.882Z,6.75
2022-08-14T18:13:10.843Z,6.68
2022-08-14T18:15:41.555Z,6.43
2022-08-14T18:18:11.989Z,6.40
2022-08-14T18:21:42.736Z,7.50
2022-08-14T18:23:30.621Z,6.50
2022-08-14T18:26:00.600Z,6.38
2022-08-14T18:28:51.619Z,7.30
2022-08-14T18:31:26.081Z,5.63
2022-08-14T18:34:31.081Z,6.00
2022-08-14T18:37:18.000Z,6.47
2022-08-14T18:40:02.036Z,7.00
2022-08-14T18:42:36.125Z,6.65
2022-08-14T18:45:15.667Z,6.97
2022-08-14T18:48:16.152Z,9.52
2022-08-14T18:50:54.041Z,7.78
2022-08-14T18:53:25.455Z,8.25
2022-08-14T18:56:09.536Z,7.72
2022-08-14T18:58:49.251Z,26.05
2022-08-14T19:01:30.472Z,65.90
2022-08-14T19:04:01.516Z,76.60
2022-08-14T19:06:38.205Z,71.95
2022-08-14T19:09:06.287Z,14.63
2022-08-14T19:11:46.479Z,11.77
2022-08-14T19:14:46.137Z,11.15
2022-08-14T19:17:42.304Z,32.33
2022-08-14T19:20:11.040Z,30.93
2022-08-14T19:22:40.984Z,33.78
2022-08-14T19:25:12.204Z,13.63
2022-08-14T19:27:46.512Z,12.57
2022-08-14T19:30:20.353Z,20.25
2022-08-14T19:32:56.072Z,15.02
2022-08-14T19:35:49.376Z,12.18
2022-08-14T19:38:52.211Z,12.25
2022-08-14T19:41:23.178Z,14.57
2022-08-14T19:43:57.031Z,15.55
2022-08-14T19:46:38.184Z,8.38
2022-08-14T19:50:24.379Z,7.23
2022-08-14T19:52:23.127Z,7.15
2022-08-14T19:54:53.625Z,7.40
2022-08-14T19:57:25.997Z,15.00
2022-08-14T20:00:28.082Z,13.13
2022-08-14T20:03:10.978Z,24.35
2022-08-14T20:05:45.399Z,12.45
2022-08-14T20:11:01.367Z,9.25
2022-08-14T20:12:00.656Z,8.25
2022-08-14T20:14:28.130Z,8.52
2022-08-14T20:17:06.323Z,8.20
2022-08-14T20:19:37.937Z,6.93
2022-08-14T20:22:36.537Z,6.90
2022-08-14T20:25:45.594Z,7.47
2022-08-14T20:28:32.234Z,6.45
2022-08-14T20:31:17.797Z,7.07
2022-08-14T20:34:24.280Z,6.65
2022-08-14T20:37:04.697Z,6.93
2022-08-14T20:39:54.749Z,7.45
2022-08-14T20:42:49.419Z,6.55
2022-08-14T20:45:29.136Z,6.93
2022-08-14T20:48:01.686Z,6.38
2022-08-14T20:50:36.691Z,6.30
2022-08-14T20:53:35.475Z,6.70
2022-08-14T20:56:28.928Z,7.28
2022-08-14T20:58:58.908Z,7.57
2022-08-14T21:01:33.118Z,7.82
2022-08-14T21:04:05.029Z,7.65
2022-08-14T21:07:24.480Z,7.50
2022-08-14T21:10:03.320Z,7.10
2022-08-14T21:12:33.646Z,7.28
2022-08-14T21:15:11.043Z,7.35
2022-08-14T21:17:41.579Z,6.50
2022-08-14T21:20:25.527Z,6.90
2022-08-14T21:22:56.594Z,9.60
2022-08-14T21:25:31.484Z,9.23
2022-08-14T21:28:04.211Z,8.10
2022-08-14T21:30:51.566Z,8.05
2022-08-14T21:33:21.622Z,7.90
2022-08-14T21:35:54.953Z,8.68
2022-08-14T21:38:34.301Z,8.53
2022-08-14T21:41:42.156Z,9.20
2022-08-14T21:44:18.120Z,7.27
2022-08-14T21:46:54.885Z,6.70
2022-08-14T21:49:33.834Z,7.80
2022-08-14T21:52:51.584Z,7.18
2022-08-14T21:55:09.395Z,6.60
2022-08-14T21:57:56.143Z,6.05
2022-08-14T22:00:35.176Z,7.05
2022-08-14T22:03:09.089Z,6.60
2022-08-14T22:05:39.283Z,6.50
2022-08-14T22:08:12.407Z,6.72
2022-08-14T22:13:19.280Z,7.15
2022-08-14T22:15:50.057Z,7.28
2022-08-14T22:18:21.490Z,6.47
2022-08-14T22:20:53.454Z,7.30
2022-08-14T22:23:24.031Z,6.85
2022-08-14T22:25:55.416Z,6.68
2022-08-14T22:28:33.109Z,6.07
2022-08-14T22:31:10.673Z,5.93
2022-08-14T22:33:40.531Z,6.68
2022-08-14T22:36:34.328Z,5.93
2022-08-14T22:40:16.893Z,6.60
2022-08-14T22:42:23.037Z,6.90
2022-08-14T22:44:56.442Z,6.32
2022-08-14T22:47:40.566Z,5.50
2022-08-14T22:50:28.729Z,6.25
2022-08-14T22:52:59.948Z,6.40
2022-08-14T22:55:28.248Z,5.55
2022-08-14T22:57:55.843Z,5.78
2022-08-14T23:00:30.029Z,6.20
2022-08-14T23:03:01.921Z,6.32
2022-08-14T23:05:40.303Z,6.43
2022-08-14T23:09:00.011Z,5.95
2022-08-14T23:11:10.591Z,6.32
2022-08-14T23:13:40.823Z,6.57
2022-08-14T23:16:19.883Z,5.60
2022-08-14T23:18:54.123Z,6.05
2022-08-14T23:21:24.383Z,6.30
2022-08-14T23:23:57.281Z,6.85
2022-08-14T23:26:48.737Z,7.05
2022-08-14T23:29:17.970Z,6.70
2022-08-14T23:31:48.114Z,7.50
2022-08-14T23:34:21.413Z,8.60
2022-08-14T23:36:55.467Z,9.23
2022-08-14T23:39:30.134Z,9.07
2022-08-14T23:42:04.181Z,8.00
2022-08-14T23:44:35.180Z,7.40
2022-08-14T23:47:11.734Z,7.75
2022-08-14T23:50:03.703Z,6.15
2022-08-14T23:52:50.781Z,6.03
2022-08-14T23:55:29.726Z,8.65
2022-08-14T23:57:59.343Z,12.30
